sensor_id;sensor_type;location;lat;lon;timestamp;P1;durP1;ratioP1;P2;durP2;ratioP2
6661;SDS011;3367;48.714;8.994;2023-02-15T00:00:04;57.57;;;25.93;;
6661;SDS011;3367;48.714;8.994;2023-02-15T00:02:33;61.93;;;28.07;;
6661;SDS011;3367;48.714;8.994;2023-02-15T00:05:01;55.20;;;25.93;;
6661;SDS011;3367;48.714;8.994;2023-02-15T00:07:28;52.77;;;26.17;;
6661;SDS011;3367;48.714;8.994;2023-02-15T00:09:54;70.13;;;27.50;;
6661;SDS011;3367;48.714;8.994;2023-02-15T00:12:21;65.53;;;27.43;;
6661;SDS011;3367;48.714;8.994;2023-02-15T00:14:48;65.67;;;29.87;;
6661;SDS011;3367;48.714;8.994;2023-02-15T00:17:15;62.50;;;29.60;;
6661;SDS011;3367;48.714;8.994;2023-02-15T00:19:41;57.03;;;26.00;;
6661;SDS011;3367;48.714;8.994;2023-02-15T00:22:10;54.10;;;26.03;;
6661;SDS011;3367;48.714;8.994;2023-02-15T00:24:36;57.43;;;25.70;;
6661;SDS011;3367;48.714;8.994;2023-02-15T00:27:03;62.20;;;29.20;;
6661;SDS011;3367;48.714;8.994;2023-02-15T00:29:30;52.23;;;24.70;;
6661;SDS011;3367;48.714;8.994;2023-02-15T00:31:57;58.97;;;25.47;;
6661;SDS011;3367;48.714;8.994;2023-02-15T00:34:25;61.17;;;25.27;;
6661;SDS011;3367;48.714;8.994;2023-02-15T00:36:53;70.90;;;28.17;;
6661;SDS011;3367;48.714;8.994;2023-02-15T00:39:22;64.00;;;26.50;;
6661;SDS011;3367;48.714;8.994;2023-02-15T00:41:49;56.87;;;26.77;;
6661;SDS011;3367;48.714;8.994;2023-02-15T00:44:16;65.70;;;27.50;;
6661;SDS011;3367;48.714;8.994;2023-02-15T00:46:43;65.07;;;26.60;;
6661;SDS011;3367;48.714;8.994;2023-02-15T00:49:10;59.40;;;28.00;;
6661;SDS011;3367;48.714;8.994;2023-02-15T00:51:37;61.20;;;25.57;;
6661;SDS011;3367;48.714;8.994;2023-02-15T00:54:04;53.13;;;25.50;;
6661;SDS011;3367;48.714;8.994;2023-02-15T00:56:32;59.93;;;25.20;;
6661;SDS011;3367;48.714;8.994;2023-02-15T00:58:59;62.17;;;26.67;;
6661;SDS011;3367;48.714;8.994;2023-02-15T01:01:26;56.47;;;26.10;;
6661;SDS011;3367;48.714;8.994;2023-02-15T01:03:52;61.47;;;25.27;;
6661;SDS011;3367;48.714;8.994;2023-02-15T01:06:19;48.80;;;24.27;;
6661;SDS011;3367;48.714;8.994;2023-02-15T01:08:47;50.87;;;25.17;;
6661;SDS011;3367;48.714;8.994;2023-02-15T01:11:14;51.33;;;26.57;;
6661;SDS011;3367;48.714;8.994;2023-02-15T01:13:48;45.80;;;23.13;;
6661;SDS011;3367;48.714;8.994;2023-02-15T01:16:15;55.30;;;24.47;;
6661;SDS011;3367;48.714;8.994;2023-02-15T01:18:43;46.47;;;22.87;;
6661;SDS011;3367;48.714;8.994;2023-02-15T01:21:10;50.50;;;23.60;;
6661;SDS011;3367;48.714;8.994;2023-02-15T01:23:38;43.93;;;21.80;;
6661;SDS011;3367;48.714;8.994;2023-02-15T01:26:05;52.40;;;23.60;;
6661;SDS011;3367;48.714;8.994;2023-02-15T01:28:33;44.10;;;23.20;;
6661;SDS011;3367;48.714;8.994;2023-02-15T01:31:05;46.53;;;23.10;;
6661;SDS011;3367;48.714;8.994;2023-02-15T01:33:33;44.33;;;22.47;;
6661;SDS011;3367;48.714;8.994;2023-02-15T01:36:01;47.00;;;21.93;;
6661;SDS011;3367;48.714;8.994;2023-02-15T01:38:28;47.40;;;22.40;;
6661;SDS011;3367;48.714;8.994;2023-02-15T01:40:55;48.97;;;23.37;;
6661;SDS011;3367;48.714;8.994;2023-02-15T01:43:43;48.27;;;22.77;;
6661;SDS011;3367;48.714;8.994;2023-02-15T01:46:13;48.13;;;21.93;;
6661;SDS011;3367;48.714;8.994;2023-02-15T01:48:43;51.00;;;22.10;;
6661;SDS011;3367;48.714;8.994;2023-02-15T01:51:13;45.93;;;22.97;;
6661;SDS011;3367;48.714;8.994;2023-02-15T01:53:45;41.20;;;22.20;;
6661;SDS011;3367;48.714;8.994;2023-02-15T01:56:17;45.77;;;20.80;;
6661;SDS011;3367;48.714;8.994;2023-02-15T01:58:47;46.60;;;22.17;;
6661;SDS011;3367;48.714;8.994;2023-02-15T02:01:18;41.67;;;20.70;;
6661;SDS011;3367;48.714;8.994;2023-02-15T02:03:49;41.37;;;20.70;;
6661;SDS011;3367;48.714;8.994;2023-02-15T02:06:24;38.63;;;20.23;;
6661;SDS011;3367;48.714;8.994;2023-02-15T02:08:52;42.80;;;21.73;;
6661;SDS011;3367;48.714;8.994;2023-02-15T02:11:19;40.77;;;20.70;;
6661;SDS011;3367;48.714;8.994;2023-02-15T02:13:46;46.63;;;22.47;;
6661;SDS011;3367;48.714;8.994;2023-02-15T02:16:14;49.70;;;22.20;;
6661;SDS011;3367;48.714;8.994;2023-02-15T02:18:49;43.10;;;21.03;;
6661;SDS011;3367;48.714;8.994;2023-02-15T02:21:41;47.43;;;21.37;;
6661;SDS011;3367;48.714;8.994;2023-02-15T02:24:32;50.50;;;23.40;;
6661;SDS011;3367;48.714;8.994;2023-02-15T02:27:23;49.83;;;21.67;;
6661;SDS011;3367;48.714;8.994;2023-02-15T02:33:17;54.27;;;24.97;;
6661;SDS011;3367;48.714;8.994;2023-02-15T02:35:56;52.67;;;24.20;;
6661;SDS011;3367;48.714;8.994;2023-02-15T02:38:29;46.63;;;23.37;;
6661;SDS011;3367;48.714;8.994;2023-02-15T02:41:06;48.40;;;23.27;;
6661;SDS011;3367;48.714;8.994;2023-02-15T02:43:41;47.90;;;23.17;;
6661;SDS011;3367;48.714;8.994;2023-02-15T02:46:15;46.20;;;21.97;;
6661;SDS011;3367;48.714;8.994;2023-02-15T02:48:48;44.60;;;22.40;;
6661;SDS011;3367;48.714;8.994;2023-02-15T02:51:16;42.20;;;18.93;;
6661;SDS011;3367;48.714;8.994;2023-02-15T02:53:47;40.50;;;20.30;;
6661;SDS011;3367;48.714;8.994;2023-02-15T02:56:18;42.73;;;20.70;;
6661;SDS011;3367;48.714;8.994;2023-02-15T02:58:50;49.57;;;21.50;;
6661;SDS011;3367;48.714;8.994;2023-02-15T03:01:22;49.23;;;21.43;;
6661;SDS011;3367;48.714;8.994;2023-02-15T03:03:54;50.50;;;24.00;;
6661;SDS011;3367;48.714;8.994;2023-02-15T03:06:24;53.23;;;22.37;;
6661;SDS011;3367;48.714;8.994;2023-02-15T03:08:56;46.30;;;22.43;;
6661;SDS011;3367;48.714;8.994;2023-02-15T03:11:27;43.90;;;21.20;;
6661;SDS011;3367;48.714;8.994;2023-02-15T03:13:54;47.00;;;22.33;;
6661;SDS011;3367;48.714;8.994;2023-02-15T03:16:21;46.13;;;21.93;;
6661;SDS011;3367;48.714;8.994;2023-02-15T03:18:56;45.00;;;21.10;;
6661;SDS011;3367;48.714;8.994;2023-02-15T03:21:28;42.67;;;20.90;;
6661;SDS011;3367;48.714;8.994;2023-02-15T03:24:00;37.73;;;19.43;;
6661;SDS011;3367;48.714;8.994;2023-02-15T03:26:32;42.40;;;21.03;;
6661;SDS011;3367;48.714;8.994;2023-02-15T03:29:02;44.53;;;20.80;;
6661;SDS011;3367;48.714;8.994;2023-02-15T03:31:32;42.70;;;20.30;;
6661;SDS011;3367;48.714;8.994;2023-02-15T03:34:06;39.53;;;20.63;;
6661;SDS011;3367;48.714;8.994;2023-02-15T03:36:36;40.83;;;20.23;;
6661;SDS011;3367;48.714;8.994;2023-02-15T03:39:12;45.27;;;20.83;;
6661;SDS011;3367;48.714;8.994;2023-02-15T03:41:45;43.73;;;21.73;;
6661;SDS011;3367;48.714;8.994;2023-02-15T03:44:22;43.93;;;21.23;;
6661;SDS011;3367;48.714;8.994;2023-02-15T03:46:54;42.10;;;19.30;;
6661;SDS011;3367;48.714;8.994;2023-02-15T03:49:28;46.43;;;20.50;;
6661;SDS011;3367;48.714;8.994;2023-02-15T03:52:02;42.90;;;20.50;;
6661;SDS011;3367;48.714;8.994;2023-02-15T03:54:32;42.90;;;20.97;;
6661;SDS011;3367;48.714;8.994;2023-02-15T03:57:12;40.83;;;19.73;;
6661;SDS011;3367;48.714;8.994;2023-02-15T03:59:58;47.80;;;20.53;;
6661;SDS011;3367;48.714;8.994;2023-02-15T04:02:45;40.33;;;19.43;;
6661;SDS011;3367;48.714;8.994;2023-02-15T04:05:24;41.70;;;20.90;;
6661;SDS011;3367;48.714;8.994;2023-02-15T04:07:51;45.20;;;21.07;;
6661;SDS011;3367;48.714;8.994;2023-02-15T04:10:18;42.27;;;23.23;;
6661;SDS011;3367;48.714;8.994;2023-02-15T04:13:02;57.23;;;23.10;;
6661;SDS011;3367;48.714;8.994;2023-02-15T04:15:29;42.17;;;20.67;;
6661;SDS011;3367;48.714;8.994;2023-02-15T04:18:13;46.97;;;21.23;;
6661;SDS011;3367;48.714;8.994;2023-02-15T04:20:44;42.97;;;21.97;;
6661;SDS011;3367;48.714;8.994;2023-02-15T04:23:28;45.57;;;22.37;;
6661;SDS011;3367;48.714;8.994;2023-02-15T04:26:12;43.40;;;20.17;;
6661;SDS011;3367;48.714;8.994;2023-02-15T04:28:39;54.03;;;21.90;;
6661;SDS011;3367;48.714;8.994;2023-02-15T04:31:06;39.10;;;20.43;;
6661;SDS011;3367;48.714;8.994;2023-02-15T04:33:33;48.30;;;23.63;;
6661;SDS011;3367;48.714;8.994;2023-02-15T04:36:02;45.23;;;22.03;;
6661;SDS011;3367;48.714;8.994;2023-02-15T04:38:29;55.20;;;24.53;;
6661;SDS011;3367;48.714;8.994;2023-02-15T04:40:56;50.57;;;23.20;;
6661;SDS011;3367;48.714;8.994;2023-02-15T04:43:22;57.63;;;22.77;;
6661;SDS011;3367;48.714;8.994;2023-02-15T04:45:49;48.27;;;22.80;;
6661;SDS011;3367;48.714;8.994;2023-02-15T04:48:17;45.80;;;21.47;;
6661;SDS011;3367;48.714;8.994;2023-02-15T04:50:44;44.77;;;20.00;;
6661;SDS011;3367;48.714;8.994;2023-02-15T04:53:12;49.97;;;22.13;;
6661;SDS011;3367;48.714;8.994;2023-02-15T04:55:41;46.97;;;22.50;;
6661;SDS011;3367;48.714;8.994;2023-02-15T04:58:08;40.10;;;21.77;;
6661;SDS011;3367;48.714;8.994;2023-02-15T05:00:35;42.67;;;21.83;;
6661;SDS011;3367;48.714;8.994;2023-02-15T05:03:02;55.07;;;21.73;;
6661;SDS011;3367;48.714;8.994;2023-02-15T05:05:29;53.00;;;22.83;;
6661;SDS011;3367;48.714;8.994;2023-02-15T05:07:55;46.90;;;22.70;;
6661;SDS011;3367;48.714;8.994;2023-02-15T05:10:23;46.17;;;21.40;;
6661;SDS011;3367;48.714;8.994;2023-02-15T05:12:50;40.57;;;20.87;;
6661;SDS011;3367;48.714;8.994;2023-02-15T05:15:17;43.67;;;21.47;;
6661;SDS011;3367;48.714;8.994;2023-02-15T05:17:44;38.60;;;19.40;;
6661;SDS011;3367;48.714;8.994;2023-02-15T05:20:10;40.27;;;21.37;;
6661;SDS011;3367;48.714;8.994;2023-02-15T05:22:37;47.60;;;21.97;;
6661;SDS011;3367;48.714;8.994;2023-02-15T05:25:05;36.57;;;20.03;;
6661;SDS011;3367;48.714;8.994;2023-02-15T05:27:51;40.53;;;19.73;;
6661;SDS011;3367;48.714;8.994;2023-02-15T05:30:35;49.97;;;22.30;;
6661;SDS011;3367;48.714;8.994;2023-02-15T05:33:02;57.80;;;24.57;;
6661;SDS011;3367;48.714;8.994;2023-02-15T05:35:29;40.63;;;21.40;;
6661;SDS011;3367;48.714;8.994;2023-02-15T05:37:55;46.07;;;23.27;;
6661;SDS011;3367;48.714;8.994;2023-02-15T05:40:22;43.23;;;22.43;;
6661;SDS011;3367;48.714;8.994;2023-02-15T05:42:49;42.80;;;22.63;;
6661;SDS011;3367;48.714;8.994;2023-02-15T05:45:17;40.30;;;21.00;;
6661;SDS011;3367;48.714;8.994;2023-02-15T05:47:44;39.50;;;21.60;;
6661;SDS011;3367;48.714;8.994;2023-02-15T05:50:11;42.73;;;20.30;;
6661;SDS011;3367;48.714;8.994;2023-02-15T05:52:38;42.27;;;22.40;;
6661;SDS011;3367;48.714;8.994;2023-02-15T05:55:05;39.57;;;19.90;;
6661;SDS011;3367;48.714;8.994;2023-02-15T05:57:33;38.27;;;18.97;;
6661;SDS011;3367;48.714;8.994;2023-02-15T06:00:00;45.10;;;20.77;;
6661;SDS011;3367;48.714;8.994;2023-02-15T06:02:31;45.80;;;19.67;;
6661;SDS011;3367;48.714;8.994;2023-02-15T06:04:59;39.87;;;20.60;;
6661;SDS011;3367;48.714;8.994;2023-02-15T06:07:26;46.07;;;21.93;;
6661;SDS011;3367;48.714;8.994;2023-02-15T06:09:53;47.90;;;24.93;;
6661;SDS011;3367;48.714;8.994;2023-02-15T06:12:20;53.67;;;25.53;;
6661;SDS011;3367;48.714;8.994;2023-02-15T06:14:47;53.97;;;25.30;;
6661;SDS011;3367;48.714;8.994;2023-02-15T06:17:14;57.20;;;25.03;;
6661;SDS011;3367;48.714;8.994;2023-02-15T06:19:43;58.30;;;25.40;;
6661;SDS011;3367;48.714;8.994;2023-02-15T06:22:10;46.03;;;22.77;;
6661;SDS011;3367;48.714;8.994;2023-02-15T06:24:39;52.83;;;24.23;;
6661;SDS011;3367;48.714;8.994;2023-02-15T06:27:08;45.27;;;23.07;;
6661;SDS011;3367;48.714;8.994;2023-02-15T06:29:36;47.97;;;24.60;;
6661;SDS011;3367;48.714;8.994;2023-02-15T06:32:03;41.87;;;24.00;;
6661;SDS011;3367;48.714;8.994;2023-02-15T06:34:31;55.10;;;25.00;;
6661;SDS011;3367;48.714;8.994;2023-02-15T06:37:00;51.63;;;25.70;;
6661;SDS011;3367;48.714;8.994;2023-02-15T06:39:27;45.63;;;22.77;;
6661;SDS011;3367;48.714;8.994;2023-02-15T06:41:53;46.67;;;24.97;;
6661;SDS011;3367;48.714;8.994;2023-02-15T06:44:20;50.30;;;23.67;;
6661;SDS011;3367;48.714;8.994;2023-02-15T06:46:47;48.63;;;23.87;;
6661;SDS011;3367;48.714;8.994;2023-02-15T06:49:14;50.57;;;25.13;;
6661;SDS011;3367;48.714;8.994;2023-02-15T06:51:41;55.87;;;25.87;;
6661;SDS011;3367;48.714;8.994;2023-02-15T06:54:09;57.10;;;26.77;;
6661;SDS011;3367;48.714;8.994;2023-02-15T06:56:36;60.37;;;28.57;;
6661;SDS011;3367;48.714;8.994;2023-02-15T06:59:03;59.80;;;29.40;;
6661;SDS011;3367;48.714;8.994;2023-02-15T07:01:30;58.00;;;29.43;;
6661;SDS011;3367;48.714;8.994;2023-02-15T07:03:57;60.20;;;29.90;;
6661;SDS011;3367;48.714;8.994;2023-02-15T07:06:24;55.47;;;27.77;;
6661;SDS011;3367;48.714;8.994;2023-02-15T07:08:51;55.70;;;26.83;;
6661;SDS011;3367;48.714;8.994;2023-02-15T07:11:19;55.37;;;27.87;;
6661;SDS011;3367;48.714;8.994;2023-02-15T07:14:03;64.53;;;27.67;;
6661;SDS011;3367;48.714;8.994;2023-02-15T07:16:29;54.77;;;26.10;;
6661;SDS011;3367;48.714;8.994;2023-02-15T07:18:56;51.60;;;24.10;;
6661;SDS011;3367;48.714;8.994;2023-02-15T07:21:23;49.73;;;24.80;;
6661;SDS011;3367;48.714;8.994;2023-02-15T07:23:50;41.20;;;23.07;;
6661;SDS011;3367;48.714;8.994;2023-02-15T07:26:16;40.37;;;21.60;;
6661;SDS011;3367;48.714;8.994;2023-02-15T07:28:44;40.20;;;22.20;;
6661;SDS011;3367;48.714;8.994;2023-02-15T07:31:11;37.80;;;21.20;;
6661;SDS011;3367;48.714;8.994;2023-02-15T07:33:38;41.47;;;21.83;;
6661;SDS011;3367;48.714;8.994;2023-02-15T07:36:05;39.30;;;21.20;;
6661;SDS011;3367;48.714;8.994;2023-02-15T07:38:34;48.80;;;21.53;;
6661;SDS011;3367;48.714;8.994;2023-02-15T07:41:03;39.47;;;21.87;;
6661;SDS011;3367;48.714;8.994;2023-02-15T07:43:34;43.37;;;23.33;;
6661;SDS011;3367;48.714;8.994;2023-02-15T07:46:03;39.40;;;23.77;;
6661;SDS011;3367;48.714;8.994;2023-02-15T07:48:32;41.37;;;22.77;;
6661;SDS011;3367;48.714;8.994;2023-02-15T07:50:59;51.30;;;25.13;;
6661;SDS011;3367;48.714;8.994;2023-02-15T07:53:27;41.83;;;23.50;;
6661;SDS011;3367;48.714;8.994;2023-02-15T07:55:54;50.40;;;23.30;;
6661;SDS011;3367;48.714;8.994;2023-02-15T07:58:23;45.60;;;23.40;;
6661;SDS011;3367;48.714;8.994;2023-02-15T08:01:12;41.97;;;23.00;;
6661;SDS011;3367;48.714;8.994;2023-02-15T08:03:39;41.73;;;22.40;;
6661;SDS011;3367;48.714;8.994;2023-02-15T08:06:06;33.53;;;19.90;;
6661;SDS011;3367;48.714;8.994;2023-02-15T08:08:33;35.30;;;20.50;;
6661;SDS011;3367;48.714;8.994;2023-02-15T08:11:00;39.40;;;20.80;;
6661;SDS011;3367;48.714;8.994;2023-02-15T08:13:46;37.53;;;20.23;;
6661;SDS011;3367;48.714;8.994;2023-02-15T08:16:21;32.33;;;17.60;;
6661;SDS011;3367;48.714;8.994;2023-02-15T08:18:49;34.13;;;17.37;;
6661;SDS011;3367;48.714;8.994;2023-02-15T08:21:16;32.77;;;18.10;;
6661;SDS011;3367;48.714;8.994;2023-02-15T08:23:43;30.77;;;17.03;;
6661;SDS011;3367;48.714;8.994;2023-02-15T08:26:09;29.90;;;16.07;;
6661;SDS011;3367;48.714;8.994;2023-02-15T08:28:36;27.07;;;14.30;;
6661;SDS011;3367;48.714;8.994;2023-02-15T08:31:04;21.60;;;13.40;;
6661;SDS011;3367;48.714;8.994;2023-02-15T08:33:32;25.20;;;12.80;;
6661;SDS011;3367;48.714;8.994;2023-02-15T08:36:02;21.00;;;11.70;;
6661;SDS011;3367;48.714;8.994;2023-02-15T08:38:29;20.40;;;11.50;;
6661;SDS011;3367;48.714;8.994;2023-02-15T08:40:57;20.70;;;11.37;;
6661;SDS011;3367;48.714;8.994;2023-02-15T08:43:24;21.40;;;12.50;;
6661;SDS011;3367;48.714;8.994;2023-02-15T08:45:51;17.83;;;12.47;;
6661;SDS011;3367;48.714;8.994;2023-02-15T08:48:18;19.80;;;11.23;;
6661;SDS011;3367;48.714;8.994;2023-02-15T08:50:46;16.60;;;10.60;;
6661;SDS011;3367;48.714;8.994;2023-02-15T08:53:13;20.07;;;11.77;;
6661;SDS011;3367;48.714;8.994;2023-02-15T08:55:39;26.40;;;14.13;;
6661;SDS011;3367;48.714;8.994;2023-02-15T08:58:06;19.63;;;11.70;;
6661;SDS011;3367;48.714;8.994;2023-02-15T09:00:33;19.63;;;11.63;;
6661;SDS011;3367;48.714;8.994;2023-02-15T09:02:59;21.10;;;12.47;;
6661;SDS011;3367;48.714;8.994;2023-02-15T09:05:26;16.77;;;11.70;;
6661;SDS011;3367;48.714;8.994;2023-02-15T09:07:54;21.40;;;12.60;;
6661;SDS011;3367;48.714;8.994;2023-02-15T09:10:21;19.20;;;12.57;;
6661;SDS011;3367;48.714;8.994;2023-02-15T09:12:48;27.40;;;14.57;;
6661;SDS011;3367;48.714;8.994;2023-02-15T09:15:16;24.87;;;13.43;;
6661;SDS011;3367;48.714;8.994;2023-02-15T09:17:42;23.93;;;12.80;;
6661;SDS011;3367;48.714;8.994;2023-02-15T09:20:09;23.03;;;11.50;;
6661;SDS011;3367;48.714;8.994;2023-02-15T09:22:37;18.90;;;10.17;;
6661;SDS011;3367;48.714;8.994;2023-02-15T09:25:05;18.60;;;10.00;;
6661;SDS011;3367;48.714;8.994;2023-02-15T09:27:32;17.23;;;9.90;;
6661;SDS011;3367;48.714;8.994;2023-02-15T09:29:59;21.70;;;11.97;;
6661;SDS011;3367;48.714;8.994;2023-02-15T09:32:26;20.47;;;11.27;;
6661;SDS011;3367;48.714;8.994;2023-02-15T09:34:52;24.83;;;12.47;;
6661;SDS011;3367;48.714;8.994;2023-02-15T09:37:19;17.33;;;10.90;;
6661;SDS011;3367;48.714;8.994;2023-02-15T09:39:46;16.63;;;10.23;;
6661;SDS011;3367;48.714;8.994;2023-02-15T09:42:18;17.93;;;9.53;;
6661;SDS011;3367;48.714;8.994;2023-02-15T09:45:04;17.20;;;8.77;;
6661;SDS011;3367;48.714;8.994;2023-02-15T09:48:01;10.27;;;7.30;;
6661;SDS011;3367;48.714;8.994;2023-02-15T09:50:51;15.17;;;8.57;;
6661;SDS011;3367;48.714;8.994;2023-02-15T09:53:31;14.83;;;8.77;;
6661;SDS011;3367;48.714;8.994;2023-02-15T09:56:11;14.30;;;8.63;;
6661;SDS011;3367;48.714;8.994;2023-02-15T09:58:47;16.77;;;8.50;;
6661;SDS011;3367;48.714;8.994;2023-02-15T10:01:20;10.97;;;8.10;;
6661;SDS011;3367;48.714;8.994;2023-02-15T10:04:03;16.40;;;8.13;;
6661;SDS011;3367;48.714;8.994;2023-02-15T10:06:38;19.37;;;7.70;;
6661;SDS011;3367;48.714;8.994;2023-02-15T10:12:08;18.83;;;7.93;;
6661;SDS011;3367;48.714;8.994;2023-02-15T10:14:51;14.93;;;8.13;;
6661;SDS011;3367;48.714;8.994;2023-02-15T10:17:34;11.80;;;7.60;;
6661;SDS011;3367;48.714;8.994;2023-02-15T10:20:17;14.30;;;7.60;;
6661;SDS011;3367;48.714;8.994;2023-02-15T10:25:46;31.93;;;9.63;;
6661;SDS011;3367;48.714;8.994;2023-02-15T10:28:16;13.80;;;8.17;;
6661;SDS011;3367;48.714;8.994;2023-02-15T10:30:47;18.73;;;8.80;;
6661;SDS011;3367;48.714;8.994;2023-02-15T10:33:20;20.07;;;9.03;;
6661;SDS011;3367;48.714;8.994;2023-02-15T10:36:02;13.83;;;8.20;;
6661;SDS011;3367;48.714;8.994;2023-02-15T10:38:51;17.30;;;7.80;;
6661;SDS011;3367;48.714;8.994;2023-02-15T10:41:27;14.17;;;7.63;;
6661;SDS011;3367;48.714;8.994;2023-02-15T10:44:09;13.07;;;7.60;;
6661;SDS011;3367;48.714;8.994;2023-02-15T10:46:55;10.60;;;6.83;;
6661;SDS011;3367;48.714;8.994;2023-02-15T10:49:37;14.90;;;7.03;;
6661;SDS011;3367;48.714;8.994;2023-02-15T10:52:24;15.70;;;8.10;;
6661;SDS011;3367;48.714;8.994;2023-02-15T10:55:02;14.20;;;7.43;;
6661;SDS011;3367;48.714;8.994;2023-02-15T10:57:36;13.60;;;6.93;;
6661;SDS011;3367;48.714;8.994;2023-02-15T11:00:13;15.40;;;8.23;;
6661;SDS011;3367;48.714;8.994;2023-02-15T11:02:58;14.90;;;6.97;;
6661;SDS011;3367;48.714;8.994;2023-02-15T11:05:35;13.73;;;8.10;;
6661;SDS011;3367;48.714;8.994;2023-02-15T11:08:14;14.73;;;7.67;;
6661;SDS011;3367;48.714;8.994;2023-02-15T11:10:42;11.60;;;7.03;;
6661;SDS011;3367;48.714;8.994;2023-02-15T11:13:13;11.23;;;7.00;;
6661;SDS011;3367;48.714;8.994;2023-02-15T11:15:43;12.97;;;7.67;;
6661;SDS011;3367;48.714;8.994;2023-02-15T11:18:14;12.00;;;7.30;;
6661;SDS011;3367;48.714;8.994;2023-02-15T11:20:46;13.50;;;7.50;;
6661;SDS011;3367;48.714;8.994;2023-02-15T11:23:19;18.93;;;7.40;;
6661;SDS011;3367;48.714;8.994;2023-02-15T11:25:47;16.13;;;7.37;;
6661;SDS011;3367;48.714;8.994;2023-02-15T11:28:22;9.60;;;7.03;;
6661;SDS011;3367;48.714;8.994;2023-02-15T11:30:53;19.47;;;7.13;;
6661;SDS011;3367;48.714;8.994;2023-02-15T11:33:23;13.73;;;7.50;;
6661;SDS011;3367;48.714;8.994;2023-02-15T11:35:55;12.00;;;6.90;;
6661;SDS011;3367;48.714;8.994;2023-02-15T11:38:27;13.20;;;7.03;;
6661;SDS011;3367;48.714;8.994;2023-02-15T11:40:58;12.57;;;7.03;;
6661;SDS011;3367;48.714;8.994;2023-02-15T11:43:30;10.53;;;6.70;;
6661;SDS011;3367;48.714;8.994;2023-02-15T11:46:02;13.03;;;6.77;;
6661;SDS011;3367;48.714;8.994;2023-02-15T11:48:31;14.03;;;6.83;;
6661;SDS011;3367;48.714;8.994;2023-02-15T11:50:58;11.93;;;6.60;;
6661;SDS011;3367;48.714;8.994;2023-02-15T11:53:26;9.07;;;5.50;;
6661;SDS011;3367;48.714;8.994;2023-02-15T11:55:58;11.47;;;4.70;;
6661;SDS011;3367;48.714;8.994;2023-02-15T11:58:28;8.30;;;4.00;;
6661;SDS011;3367;48.714;8.994;2023-02-15T12:01:00;7.90;;;4.33;;
6661;SDS011;3367;48.714;8.994;2023-02-15T12:03:39;8.40;;;4.70;;
6661;SDS011;3367;48.714;8.994;2023-02-15T12:06:15;5.47;;;4.20;;
6661;SDS011;3367;48.714;8.994;2023-02-15T12:08:48;13.03;;;4.20;;
6661;SDS011;3367;48.714;8.994;2023-02-15T12:11:21;8.43;;;4.00;;
6661;SDS011;3367;48.714;8.994;2023-02-15T12:13:56;5.20;;;4.30;;
6661;SDS011;3367;48.714;8.994;2023-02-15T12:16:24;5.13;;;3.90;;
6661;SDS011;3367;48.714;8.994;2023-02-15T12:18:53;5.80;;;4.30;;
6661;SDS011;3367;48.714;8.994;2023-02-15T12:21:26;5.27;;;4.30;;
6661;SDS011;3367;48.714;8.994;2023-02-15T12:23:56;6.80;;;4.03;;
6661;SDS011;3367;48.714;8.994;2023-02-15T12:26:26;8.60;;;4.40;;
6661;SDS011;3367;48.714;8.994;2023-02-15T12:28:56;5.30;;;4.20;;
6661;SDS011;3367;48.714;8.994;2023-02-15T12:31:27;4.10;;;3.23;;
6661;SDS011;3367;48.714;8.994;2023-02-15T12:34:09;6.40;;;3.70;;
6661;SDS011;3367;48.714;8.994;2023-02-15T12:36:40;6.70;;;3.93;;
6661;SDS011;3367;48.714;8.994;2023-02-15T12:39:18;4.60;;;3.40;;
6661;SDS011;3367;48.714;8.994;2023-02-15T12:41:57;7.50;;;3.70;;
6661;SDS011;3367;48.714;8.994;2023-02-15T12:44:30;8.47;;;4.10;;
6661;SDS011;3367;48.714;8.994;2023-02-15T12:46:58;10.03;;;4.90;;
6661;SDS011;3367;48.714;8.994;2023-02-15T12:49:28;6.93;;;3.20;;
6661;SDS011;3367;48.714;8.994;2023-02-15T12:51:56;7.93;;;3.47;;
6661;SDS011;3367;48.714;8.994;2023-02-15T12:54:33;5.70;;;3.43;;
6661;SDS011;3367;48.714;8.994;2023-02-15T12:57:14;3.70;;;2.83;;
6661;SDS011;3367;48.714;8.994;2023-02-15T12:59:50;5.17;;;2.83;;
6661;SDS011;3367;48.714;8.994;2023-02-15T13:02:20;5.37;;;3.20;;
6661;SDS011;3367;48.714;8.994;2023-02-15T13:05:05;9.70;;;3.57;;
6661;SDS011;3367;48.714;8.994;2023-02-15T13:07:44;6.53;;;3.10;;
6661;SDS011;3367;48.714;8.994;2023-02-15T13:10:19;5.53;;;3.73;;
6661;SDS011;3367;48.714;8.994;2023-02-15T13:12:49;4.53;;;3.30;;
6661;SDS011;3367;48.714;8.994;2023-02-15T13:15:26;5.03;;;3.90;;
6661;SDS011;3367;48.714;8.994;2023-02-15T13:17:56;8.60;;;3.97;;
6661;SDS011;3367;48.714;8.994;2023-02-15T13:20:26;5.43;;;3.27;;
6661;SDS011;3367;48.714;8.994;2023-02-15T13:22:54;3.80;;;3.27;;
6661;SDS011;3367;48.714;8.994;2023-02-15T13:25:25;5.97;;;3.63;;
6661;SDS011;3367;48.714;8.994;2023-02-15T13:27:55;5.50;;;3.50;;
6661;SDS011;3367;48.714;8.994;2023-02-15T13:30:27;4.40;;;3.40;;
6661;SDS011;3367;48.714;8.994;2023-02-15T13:32:58;4.00;;;3.50;;
6661;SDS011;3367;48.714;8.994;2023-02-15T13:35:31;4.27;;;3.70;;
6661;SDS011;3367;48.714;8.994;2023-02-15T13:38:15;5.30;;;3.73;;
6661;SDS011;3367;48.714;8.994;2023-02-15T13:40:52;3.50;;;3.20;;
6661;SDS011;3367;48.714;8.994;2023-02-15T13:43:25;4.13;;;3.10;;
6661;SDS011;3367;48.714;8.994;2023-02-15T13:46:10;5.17;;;3.57;;
6661;SDS011;3367;48.714;8.994;2023-02-15T13:48:44;6.33;;;3.40;;
6661;SDS011;3367;48.714;8.994;2023-02-15T13:51:21;8.40;;;3.30;;
6661;SDS011;3367;48.714;8.994;2023-02-15T13:53:55;5.07;;;3.17;;
6661;SDS011;3367;48.714;8.994;2023-02-15T13:56:38;3.50;;;3.20;;
6661;SDS011;3367;48.714;8.994;2023-02-15T13:59:26;6.73;;;4.03;;
6661;SDS011;3367;48.714;8.994;2023-02-15T14:05:21;3.40;;;2.97;;
6661;SDS011;3367;48.714;8.994;2023-02-15T14:08:11;6.20;;;2.90;;
6661;SDS011;3367;48.714;8.994;2023-02-15T14:10:46;4.40;;;3.07;;
6661;SDS011;3367;48.714;8.994;2023-02-15T14:16:36;5.27;;;3.70;;
6661;SDS011;3367;48.714;8.994;2023-02-15T14:19:13;4.13;;;3.00;;
6661;SDS011;3367;48.714;8.994;2023-02-15T14:21:47;7.00;;;3.87;;
6661;SDS011;3367;48.714;8.994;2023-02-15T14:24:26;3.63;;;3.20;;
6661;SDS011;3367;48.714;8.994;2023-02-15T14:26:59;3.27;;;2.67;;
6661;SDS011;3367;48.714;8.994;2023-02-15T14:29:40;4.87;;;3.40;;
6661;SDS011;3367;48.714;8.994;2023-02-15T14:32:15;8.83;;;3.10;;
6661;SDS011;3367;48.714;8.994;2023-02-15T14:34:46;3.80;;;2.90;;
6661;SDS011;3367;48.714;8.994;2023-02-15T14:37:16;5.20;;;4.47;;
6661;SDS011;3367;48.714;8.994;2023-02-15T14:39:51;14.37;;;8.60;;
6661;SDS011;3367;48.714;8.994;2023-02-15T14:42:48;12.50;;;7.20;;
6661;SDS011;3367;48.714;8.994;2023-02-15T14:45:21;9.03;;;6.53;;
6661;SDS011;3367;48.714;8.994;2023-02-15T14:47:55;7.90;;;5.27;;
6661;SDS011;3367;48.714;8.994;2023-02-15T14:50:38;13.50;;;8.10;;
6661;SDS011;3367;48.714;8.994;2023-02-15T14:53:24;15.93;;;10.20;;
6661;SDS011;3367;48.714;8.994;2023-02-15T14:56:15;11.63;;;7.50;;
6661;SDS011;3367;48.714;8.994;2023-02-15T14:58:58;10.47;;;6.20;;
6661;SDS011;3367;48.714;8.994;2023-02-15T15:01:30;13.00;;;7.80;;
6661;SDS011;3367;48.714;8.994;2023-02-15T15:03:59;10.23;;;6.20;;
6661;SDS011;3367;48.714;8.994;2023-02-15T15:06:30;11.90;;;7.27;;
6661;SDS011;3367;48.714;8.994;2023-02-15T15:08:59;23.23;;;8.30;;
6661;SDS011;3367;48.714;8.994;2023-02-15T15:11:38;23.73;;;9.07;;
6661;SDS011;3367;48.714;8.994;2023-02-15T15:14:07;13.43;;;8.50;;
6661;SDS011;3367;48.714;8.994;2023-02-15T15:16:46;12.67;;;8.00;;
6661;SDS011;3367;48.714;8.994;2023-02-15T15:22:32;15.60;;;8.33;;
6661;SDS011;3367;48.714;8.994;2023-02-15T15:25:01;11.27;;;7.40;;
6661;SDS011;3367;48.714;8.994;2023-02-15T15:27:41;16.63;;;9.30;;
6661;SDS011;3367;48.714;8.994;2023-02-15T15:33:17;15.73;;;8.70;;
6661;SDS011;3367;48.714;8.994;2023-02-15T15:36:12;18.97;;;9.67;;
6661;SDS011;3367;48.714;8.994;2023-02-15T15:39:05;16.67;;;9.83;;
6661;SDS011;3367;48.714;8.994;2023-02-15T15:41:47;17.70;;;10.50;;
6661;SDS011;3367;48.714;8.994;2023-02-15T15:44:27;19.83;;;11.03;;